Time;durP1;ratioP1;P1;durP2;ratioP2;P2;SDS_P1;SDS_P2;PMS_P1;PMS_P2;Temp;Humidity;BMP_temperature;BMP_pressure;BME280_temperature;BME280_humidity;BME280_pressure;Samples;Min_cycle;Max_cycle;Signal;HPM_P1;HPM_P2
2022/12/23 00:01:00;;;;;;;;;;;7.00;99.90;;;;;;5067232;28;19916;-73
2022/12/23 00:03:26;;;;;;;;;;;7.00;99.90;;;;;;5054159;28;19967;-72
2022/12/23 00:05:51;;;;;;;;;;;7.00;99.90;;;;;;5069373;28;19948;-71
2022/12/23 00:08:17;;;;;;;;;;;6.90;99.90;;;;;;5047155;28;19916;-72
2022/12/23 00:10:43;;;;;;;;;;;6.90;99.90;;;;;;5081855;28;20022;-73
2022/12/23 00:16:08;;;;;;;;;;;6.90;99.90;;;;;;5087790;28;19996;-73
2022/12/23 00:18:33;;;;;;;;;;;6.90;99.90;;;;;;5070540;28;20000;-71
2022/12/23 00:21:03;;;;;;;;;;;6.90;99.90;;;;;;5057306;28;20015;-72
2022/12/23 00:23:30;;;;;;;;;;;6.80;99.90;;;;;;5065564;28;20598;-73
2022/12/23 00:25:56;;;;;;;;;;;6.90;99.90;;;;;;5034283;28;19916;-73
2022/12/23 00:28:22;;;;;;;;;;;6.80;99.90;;;;;;5086180;28;19972;-72
2022/12/23 00:30:51;;;;;;;;;;;6.90;99.90;;;;;;5063442;28;19958;-71
2022/12/23 00:33:26;;;;;;;;;;;6.80;99.90;;;;;;5079189;28;20345;-72
2022/12/23 00:35:51;;;;;;;;;;;6.80;99.90;;;;;;5045394;28;19920;-72
2022/12/23 00:42:52;;;;;;;;;;;6.70;99.90;;;;;;5014360;28;19912;-72
2022/12/23 00:43:48;;;;;;;;;;;6.80;99.90;;;;;;5050722;28;20041;-72
2022/12/23 00:46:14;;;;;;;;;;;6.80;99.90;;;;;;5079297;28;20567;-71
2022/12/23 00:51:24;;;;;;;;;;;6.80;99.90;;;;;;5058716;28;19924;-71
2022/12/23 00:53:49;;;;;;;;;;;6.80;99.90;;;;;;5081977;28;19915;-71
2022/12/23 00:56:15;;;;;;;;;;;6.90;99.90;;;;;;5083823;28;19912;-71
2022/12/23 00:58:40;;;;;;;;;;;6.90;99.90;;;;;;5087784;28;19940;-71
2022/12/23 01:06:45;;;;;;;;;;;6.90;99.90;;;;;;5061940;28;19918;-72
2022/12/23 01:09:11;;;;;;;;;;;6.90;99.90;;;;;;5047077;28;20023;-72
2022/12/23 01:11:36;;;;;;;;;;;7.00;99.90;;;;;;5057347;28;19947;-72
2022/12/23 01:14:02;;;;;;;;;;;7.00;99.90;;;;;;5087717;28;20330;-73
2022/12/23 01:16:28;;;;;;;;;;;7.00;99.90;;;;;;5080233;28;19973;-71
2022/12/23 01:18:53;;;;;;;;;;;7.00;99.90;;;;;;5069133;28;20513;-71
2022/12/23 01:21:19;;;;;;;;;;;7.00;99.90;;;;;;5055800;28;19912;-72
2022/12/23 01:23:44;;;;;;;;;;;7.00;99.90;;;;;;5063168;28;19928;-72
2022/12/23 01:26:10;;;;;;;;;;;7.10;99.90;;;;;;5059773;28;19920;-72
2022/12/23 01:28:36;;;;;;;;;;;7.10;99.90;;;;;;5084575;28;20325;-71
2022/12/23 01:31:02;;;;;;;;;;;7.10;99.90;;;;;;5052065;28;20256;-72
2022/12/23 01:33:27;;;;;;;;;;;7.10;99.90;;;;;;5069057;28;20297;-72
2022/12/23 01:36:03;;;;;;;;;;;7.10;99.90;;;;;;5048578;28;20321;-72
2022/12/23 01:38:28;;;;;;;;;;;7.20;99.90;;;;;;5086509;28;19912;-72
2022/12/23 01:40:54;;;;;;;;;;;7.10;99.90;;;;;;5051686;28;19911;-70
2022/12/23 01:43:20;;;;;;;;;;;7.10;99.90;;;;;;5043040;28;19916;-71
2022/12/23 01:45:45;;;;;;;;;;;7.20;99.90;;;;;;5083410;28;19911;-71
2022/12/23 01:48:18;;;;;;;;;;;7.20;99.90;;;;;;5063316;28;19922;-72
2022/12/23 01:50:44;;;;;;;;;;;7.10;99.90;;;;;;5068258;28;20321;-71
2022/12/23 01:53:20;;;;;;;;;;;7.10;99.90;;;;;;5083633;28;19912;-71
2022/12/23 01:55:58;;;;;;;;;;;7.10;99.90;;;;;;5033105;28;19912;-71
2022/12/23 01:58:23;;;;;;;;;;;7.10;99.90;;;;;;5045202;28;19920;-72
2022/12/23 02:03:42;;;;;;;;;;;7.10;99.90;;;;;;5069417;28;20014;-71
2022/12/23 02:09:15;;;;;;;;;;;7.20;99.90;;;;;;5076178;28;20003;-74
2022/12/23 02:12:00;;;;;;;;;;;7.20;99.90;;;;;;5062021;28;19915;-71
2022/12/23 02:17:21;;;;;;;;;;;7.30;99.90;;;;;;5064840;28;19916;-72
2022/12/23 02:19:47;;;;;;;;;;;7.40;99.90;;;;;;5080993;28;19938;-72
2022/12/23 02:22:19;;;;;;;;;;;7.50;99.90;;;;;;5086447;28;19911;-72
2022/12/23 02:25:14;;;;;;;;;;;7.60;99.90;;;;;;5045551;28;19912;-71
2022/12/23 02:27:46;;;;;;;;;;;7.70;99.90;;;;;;5054411;28;19920;-70
2022/12/23 02:30:23;;;;;;;;;;;7.80;99.90;;;;;;5061610;28;19916;-71
2022/12/23 02:32:52;;;;;;;;;;;7.80;99.90;;;;;;5060237;28;20305;-71
2022/12/23 02:35:36;;;;;;;;;;;7.90;99.90;;;;;;5067319;28;19912;-70
2022/12/23 02:38:09;;;;;;;;;;;8.00;99.90;;;;;;5078552;28;19912;-70
2022/12/23 02:40:38;;;;;;;;;;;8.10;99.90;;;;;;5059166;28;20707;-72
2022/12/23 02:43:06;;;;;;;;;;;8.10;99.90;;;;;;5048878;28;20377;-72
2022/12/23 02:45:36;;;;;;;;;;;8.20;99.90;;;;;;5072506;28;19969;-71
2022/12/23 02:48:29;;;;;;;;;;;8.20;99.90;;;;;;5062869;28;20287;-71
2022/12/23 02:51:15;;;;;;;;;;;8.20;99.90;;;;;;5084902;28;19923;-71
2022/12/23 02:53:43;;;;;;;;;;;8.30;99.90;;;;;;5065063;28;19916;-71
2022/12/23 02:56:08;;;;;;;;;;;8.30;99.90;;;;;;5063838;28;19912;-72
2022/12/23 02:58:40;;;;;;;;;;;8.30;99.90;;;;;;5048102;28;19912;-72
2022/12/23 03:01:07;;;;;;;;;;;8.40;99.90;;;;;;5069136;28;19912;-71
2022/12/23 03:03:32;;;;;;;;;;;8.40;99.90;;;;;;5060827;28;19963;-71
2022/12/23 03:05:58;;;;;;;;;;;8.40;99.90;;;;;;5068747;28;19916;-70
2022/12/23 03:08:31;;;;;;;;;;;8.40;99.90;;;;;;5048501;28;19938;-71
2022/12/23 03:11:03;;;;;;;;;;;8.50;99.90;;;;;;5058550;28;19966;-71
2022/12/23 03:13:47;;;;;;;;;;;8.40;99.90;;;;;;5055992;28;19951;-71
2022/12/23 03:16:21;;;;;;;;;;;8.40;99.90;;;;;;5060245;28;19912;-71
2022/12/23 03:19:02;;;;;;;;;;;8.50;99.90;;;;;;5032213;28;19912;-71
2022/12/23 03:21:30;;;;;;;;;;;8.50;99.90;;;;;;5048447;28;20007;-71
2022/12/23 03:24:16;;;;;;;;;;;8.50;99.90;;;;;;5070179;28;19916;-70
2022/12/23 03:26:53;;;;;;;;;;;8.50;99.90;;;;;;5069361;28;19912;-70
2022/12/23 03:29:26;;;;;;;;;;;8.50;99.90;;;;;;5036375;28;19912;-71
2022/12/23 03:31:51;;;;;;;;;;;8.50;99.90;;;;;;5018002;28;19955;-71
2022/12/23 03:34:19;;;;;;;;;;;8.50;99.90;;;;;;5040880;28;19952;-72
2022/12/23 03:36:48;;;;;;;;;;;8.50;99.90;;;;;;5034084;28;19912;-71
2022/12/23 03:39:16;;;;;;;;;;;8.50;99.90;;;;;;5051556;28;20397;-71
2022/12/23 03:41:43;;;;;;;;;;;8.60;99.90;;;;;;5034081;28;19955;-71
2022/12/23 03:44:12;;;;;;;;;;;8.50;99.90;;;;;;5049539;28;20318;-71
2022/12/23 03:46:39;;;;;;;;;;;8.50;99.90;;;;;;5033409;28;19912;-71
2022/12/23 03:49:06;;;;;;;;;;;8.50;99.90;;;;;;5050597;28;19912;-72
2022/12/23 03:51:33;;;;;;;;;;;8.60;99.90;;;;;;5030583;28;19927;-71
2022/12/23 03:54:02;;;;;;;;;;;8.50;99.90;;;;;;5056475;28;19913;-71
2022/12/23 03:56:33;;;;;;;;;;;8.60;99.90;;;;;;5049875;28;19912;-71
2022/12/23 03:58:59;;;;;;;;;;;8.60;99.90;;;;;;5033404;28;19924;-71
2022/12/23 04:01:41;;;;;;;;;;;8.60;99.90;;;;;;5037861;28;19912;-70
2022/12/23 04:04:07;;;;;;;;;;;8.60;99.90;;;;;;5049602;28;19916;-71
2022/12/23 04:06:35;;;;;;;;;;;8.60;99.90;;;;;;5073276;28;19913;-73
2022/12/23 04:09:00;;;;;;;;;;;8.60;99.90;;;;;;5049533;28;19912;-72
2022/12/23 04:11:27;;;;;;;;;;;8.60;99.90;;;;;;5034536;28;20269;-71
2022/12/23 04:13:53;;;;;;;;;;;8.60;99.90;;;;;;5050465;28;19970;-71
2022/12/23 04:16:18;;;;;;;;;;;8.70;99.90;;;;;;5050940;28;20353;-70
2022/12/23 04:18:44;;;;;;;;;;;8.60;99.90;;;;;;5069960;28;20412;-71
2022/12/23 04:21:11;;;;;;;;;;;8.70;99.90;;;;;;5075092;28;19916;-71
2022/12/23 04:23:36;;;;;;;;;;;8.70;99.90;;;;;;5067331;28;20053;-71
2022/12/23 04:26:02;;;;;;;;;;;8.70;99.90;;;;;;5050078;28;20334;-71
2022/12/23 04:28:27;;;;;;;;;;;8.70;99.90;;;;;;5072156;28;19912;-70
2022/12/23 04:30:53;;;;;;;;;;;8.70;99.90;;;;;;5050382;28;20011;-70
2022/12/23 04:33:19;;;;;;;;;;;8.70;99.90;;;;;;5074733;28;19912;-71
2022/12/23 04:35:44;;;;;;;;;;;8.70;99.90;;;;;;5033407;28;20322;-72
2022/12/23 04:38:10;;;;;;;;;;;8.70;99.90;;;;;;5046524;28;19919;-71
2022/12/23 04:40:35;;;;;;;;;;;8.70;99.90;;;;;;5050107;28;19912;-72
2022/12/23 04:43:01;;;;;;;;;;;8.70;99.90;;;;;;5038861;28;20020;-72
2022/12/23 04:45:27;;;;;;;;;;;8.70;99.90;;;;;;5070465;28;20034;-71
2022/12/23 04:47:54;;;;;;;;;;;8.70;99.90;;;;;;5067370;28;19943;-71
2022/12/23 04:50:19;;;;;;;;;;;8.70;99.90;;;;;;5080650;28;20647;-72
2022/12/23 04:52:45;;;;;;;;;;;8.70;99.90;;;;;;5067284;28;19919;-71
2022/12/23 04:55:11;;;;;;;;;;;8.80;99.90;;;;;;5049856;28;19947;-72
2022/12/23 04:57:36;;;;;;;;;;;8.80;99.90;;;;;;5032753;28;19956;-73
2022/12/23 05:00:03;;;;;;;;;;;8.80;99.90;;;;;;5050112;28;19916;-71
2022/12/23 05:02:28;;;;;;;;;;;8.80;99.90;;;;;;5065624;28;19922;-72
2022/12/23 05:04:54;;;;;;;;;;;8.80;99.90;;;;;;5044873;28;19912;-72
2022/12/23 05:07:19;;;;;;;;;;;8.80;99.90;;;;;;5032616;28;19916;-72
2022/12/23 05:09:45;;;;;;;;;;;8.80;99.90;;;;;;5033074;28;20003;-71
2022/12/23 05:12:11;;;;;;;;;;;8.70;99.90;;;;;;5033720;28;19924;-71
2022/12/23 05:14:36;;;;;;;;;;;8.80;99.90;;;;;;5048869;28;20261;-71
2022/12/23 05:17:02;;;;;;;;;;;8.80;99.90;;;;;;5067228;28;19912;-71
2022/12/23 05:19:28;;;;;;;;;;;8.80;99.90;;;;;;5074227;28;20023;-72
2022/12/23 05:21:55;;;;;;;;;;;8.80;99.90;;;;;;5054822;28;19946;-71
2022/12/23 05:24:20;;;;;;;;;;;8.80;99.90;;;;;;5039397;28;20353;-71
2022/12/23 05:26:47;;;;;;;;;;;8.80;99.90;;;;;;5032069;28;19920;-74
2022/12/23 05:29:13;;;;;;;;;;;8.80;99.90;;;;;;5035896;28;19919;-71
2022/12/23 05:31:39;;;;;;;;;;;8.80;99.90;;;;;;5046600;28;19912;-71
2022/12/23 05:34:04;;;;;;;;;;;8.80;99.90;;;;;;5046693;28;20333;-71
2022/12/23 05:36:30;;;;;;;;;;;8.80;99.90;;;;;;5064717;28;19923;-72
2022/12/23 05:38:56;;;;;;;;;;;8.80;99.90;;;;;;5068966;28;19912;-71
2022/12/23 05:41:22;;;;;;;;;;;8.80;99.90;;;;;;5046306;28;19932;-71
2022/12/23 05:43:47;;;;;;;;;;;8.80;99.90;;;;;;5042066;28;20429;-71
2022/12/23 05:46:13;;;;;;;;;;;8.80;99.90;;;;;;5057180;28;19912;-72
2022/12/23 05:48:38;;;;;;;;;;;8.90;99.90;;;;;;5054339;28;19912;-72
2022/12/23 05:51:04;;;;;;;;;;;8.80;99.90;;;;;;5034846;28;19922;-71
2022/12/23 05:53:30;;;;;;;;;;;8.80;99.90;;;;;;5049590;28;19912;-71
2022/12/23 05:55:55;;;;;;;;;;;8.80;99.90;;;;;;5052129;28;20002;-71
2022/12/23 05:58:21;;;;;;;;;;;8.80;99.90;;;;;;5035450;28;20322;-71
2022/12/23 06:00:47;;;;;;;;;;;8.80;99.90;;;;;;5048699;28;19922;-71
2022/12/23 06:03:12;;;;;;;;;;;8.80;99.90;;;;;;5052345;28;19931;-71
2022/12/23 06:05:38;;;;;;;;;;;8.70;99.90;;;;;;5070128;28;19916;-70
2022/12/23 06:08:04;;;;;;;;;;;8.70;99.90;;;;;;5062774;28;20286;-71
2022/12/23 06:10:30;;;;;;;;;;;8.70;99.90;;;;;;5070863;28;19919;-72
2022/12/23 06:12:57;;;;;;;;;;;8.70;99.90;;;;;;5075630;28;20005;-72
2022/12/23 06:15:22;;;;;;;;;;;8.60;99.90;;;;;;5056548;28;20337;-71
2022/12/23 06:17:48;;;;;;;;;;;8.60;99.90;;;;;;5051577;28;19923;-71
2022/12/23 06:20:13;;;;;;;;;;;8.60;99.90;;;;;;5066864;28;19919;-71
2022/12/23 06:22:39;;;;;;;;;;;8.60;99.90;;;;;;5063729;28;19965;-72
2022/12/23 06:25:05;;;;;;;;;;;8.50;99.90;;;;;;5069746;28;19922;-71
2022/12/23 06:27:30;;;;;;;;;;;8.50;99.90;;;;;;5082521;28;19958;-72
2022/12/23 06:29:56;;;;;;;;;;;8.50;99.90;;;;;;5066174;28;20322;-71
2022/12/23 06:32:22;;;;;;;;;;;8.50;99.90;;;;;;5062172;28;19987;-71
2022/12/23 06:34:52;;;;;;;;;;;8.50;99.90;;;;;;5034514;28;19913;-71
2022/12/23 06:37:18;;;;;;;;;;;8.40;99.90;;;;;;5033792;28;19912;-71
2022/12/23 06:39:44;;;;;;;;;;;8.50;99.90;;;;;;5040012;28;19919;-72
2022/12/23 06:42:09;;;;;;;;;;;8.40;99.90;;;;;;5086792;28;19920;-71
2022/12/23 06:44:35;;;;;;;;;;;8.40;99.90;;;;;;5075760;28;20641;-72
2022/12/23 06:47:01;;;;;;;;;;;8.40;99.90;;;;;;5050277;28;19916;-72
2022/12/23 06:49:26;;;;;;;;;;;8.30;99.90;;;;;;5068474;28;19912;-71
2022/12/23 06:51:52;;;;;;;;;;;8.40;99.90;;;;;;5031292;28;19913;-71
2022/12/23 06:54:18;;;;;;;;;;;8.40;99.90;;;;;;5034175;28;20356;-71
2022/12/23 06:56:43;;;;;;;;;;;8.30;99.90;;;;;;5071809;28;19952;-70
2022/12/23 06:59:09;;;;;;;;;;;8.30;99.90;;;;;;5040083;28;20474;-71
2022/12/23 07:01:34;;;;;;;;;;;8.30;99.90;;;;;;5053029;28;20001;-71
2022/12/23 07:04:00;;;;;;;;;;;8.30;99.90;;;;;;5056398;28;20065;-71
2022/12/23 07:06:26;;;;;;;;;;;8.30;99.90;;;;;;5053785;28;19943;-71
2022/12/23 07:08:52;;;;;;;;;;;8.30;99.90;;;;;;5072529;28;19916;-71
2022/12/23 07:11:17;;;;;;;;;;;8.30;99.90;;;;;;5075203;28;19931;-70
2022/12/23 07:13:44;;;;;;;;;;;8.20;99.90;;;;;;5071835;28;19912;-71
2022/12/23 07:16:10;;;;;;;;;;;8.20;99.90;;;;;;5052350;28;20336;-72
2022/12/23 07:18:35;;;;;;;;;;;8.20;99.90;;;;;;5043727;28;19912;-71
2022/12/23 07:21:01;;;;;;;;;;;8.10;99.90;;;;;;5060805;28;19916;-71
2022/12/23 07:23:27;;;;;;;;;;;8.10;99.90;;;;;;5060958;28;19919;-72
2022/12/23 07:25:52;;;;;;;;;;;8.00;99.90;;;;;;5066784;28;19934;-72
2022/12/23 07:28:18;;;;;;;;;;;8.00;99.90;;;;;;5061909;28;19981;-71
2022/12/23 07:30:43;;;;;;;;;;;8.00;99.90;;;;;;5052085;28;20227;-72
2022/12/23 07:33:09;;;;;;;;;;;8.10;99.90;;;;;;5052843;28;19912;-71
2022/12/23 07:35:35;;;;;;;;;;;8.10;99.90;;;;;;5054913;28;19978;-72
2022/12/23 07:38:00;;;;;;;;;;;8.00;99.90;;;;;;5071627;28;20009;-71
2022/12/23 07:40:26;;;;;;;;;;;8.00;99.90;;;;;;5039191;28;20050;-71
2022/12/23 07:42:55;;;;;;;;;;;8.00;99.90;;;;;;5054692;28;19920;-72
2022/12/23 07:45:21;;;;;;;;;;;8.10;99.90;;;;;;5038209;28;19916;-70
2022/12/23 07:47:47;;;;;;;;;;;8.10;99.90;;;;;;5038084;28;19919;-72
2022/12/23 07:50:13;;;;;;;;;;;8.00;99.90;;;;;;5057366;28;20679;-71
2022/12/23 07:52:38;;;;;;;;;;;8.00;99.90;;;;;;5056215;28;19912;-71
2022/12/23 07:55:05;;;;;;;;;;;8.10;99.90;;;;;;5038184;28;20064;-71
2022/12/23 07:57:36;;;;;;;;;;;8.00;99.90;;;;;;5050786;28;19938;-72
2022/12/23 08:00:03;;;;;;;;;;;8.00;99.90;;;;;;5040696;28;19946;-72
2022/12/23 08:02:29;;;;;;;;;;;8.00;99.90;;;;;;5045532;28;20326;-72
2022/12/23 08:04:54;;;;;;;;;;;8.00;99.90;;;;;;5076323;28;19922;-72
2022/12/23 08:07:20;;;;;;;;;;;8.00;99.90;;;;;;5054157;28;20003;-74
2022/12/23 08:09:45;;;;;;;;;;;8.00;99.90;;;;;;5054290;28;19919;-71
2022/12/23 08:12:11;;;;;;;;;;;8.00;99.90;;;;;;5054334;28;20262;-72
2022/12/23 08:14:37;;;;;;;;;;;8.00;99.90;;;;;;5053991;28;19912;-71
2022/12/23 08:17:02;;;;;;;;;;;8.00;99.90;;;;;;5060710;28;20284;-71
2022/12/23 08:19:28;;;;;;;;;;;8.00;99.90;;;;;;5075646;28;20306;-71
2022/12/23 08:21:53;;;;;;;;;;;8.00;99.90;;;;;;5055473;28;19923;-72
2022/12/23 08:24:19;;;;;;;;;;;8.00;99.90;;;;;;5067054;28;19930;-71
2022/12/23 08:26:44;;;;;;;;;;;8.00;99.90;;;;;;5052003;28;19913;-71
2022/12/23 08:29:10;;;;;;;;;;;8.00;99.90;;;;;;5054204;28;19951;-72
2022/12/23 08:31:36;;;;;;;;;;;8.00;99.90;;;;;;5053949;28;20349;-71
2022/12/23 08:34:05;;;;;;;;;;;8.00;99.90;;;;;;5035538;28;20010;-71
2022/12/23 08:36:31;;;;;;;;;;;8.10;99.90;;;;;;5071505;28;20247;-71
2022/12/23 08:38:57;;;;;;;;;;;8.00;99.90;;;;;;5055536;28;19923;-71
2022/12/23 08:41:23;;;;;;;;;;;8.00;99.90;;;;;;5060708;28;19936;-71
2022/12/23 08:43:50;;;;;;;;;;;8.00;99.90;;;;;;5082276;28;20373;-72
2022/12/23 08:46:15;;;;;;;;;;;8.00;99.90;;;;;;5081116;28;19919;-71
2022/12/23 08:48:41;;;;;;;;;;;8.00;99.90;;;;;;5067959;28;19920;-72
2022/12/23 08:51:07;;;;;;;;;;;8.00;99.90;;;;;;5061319;28;19916;-71
2022/12/23 08:53:33;;;;;;;;;;;8.00;99.90;;;;;;5064996;28;19923;-71
2022/12/23 08:56:09;;;;;;;;;;;8.00;99.90;;;;;;5050834;28;19916;-72
2022/12/23 08:58:35;;;;;;;;;;;8.00;99.90;;;;;;5039728;28;19912;-72
2022/12/23 09:01:01;;;;;;;;;;;8.10;99.90;;;;;;5042081;28;19916;-72
2022/12/23 09:03:27;;;;;;;;;;;8.10;99.90;;;;;;5042594;28;20273;-71
2022/12/23 09:05:53;;;;;;;;;;;8.10;99.90;;;;;;5070446;28;19912;-72
2022/12/23 09:08:18;;;;;;;;;;;8.10;99.90;;;;;;5034981;28;20256;-72
2022/12/23 09:10:44;;;;;;;;;;;8.10;99.90;;;;;;5056627;28;20446;-72
2022/12/23 09:13:10;;;;;;;;;;;8.10;99.90;;;;;;5035913;28;19970;-70
2022/12/23 09:15:39;;;;;;;;;;;8.10;99.90;;;;;;5042275;28;20553;-72
2022/12/23 09:18:05;;;;;;;;;;;8.00;99.90;;;;;;5063900;28;19912;-72
2022/12/23 09:20:31;;;;;;;;;;;8.00;99.90;;;;;;5056166;28;20257;-72
2022/12/23 09:22:58;;;;;;;;;;;7.90;99.90;;;;;;5030939;28;20377;-72
2022/12/23 09:25:23;;;;;;;;;;;8.00;99.90;;;;;;5044566;28;20003;-72
2022/12/23 09:27:49;;;;;;;;;;;8.00;99.90;;;;;;5041493;28;20439;-72
2022/12/23 09:30:15;;;;;;;;;;;7.90;99.90;;;;;;5046682;28;20277;-72
2022/12/23 09:32:40;;;;;;;;;;;7.90;99.90;;;;;;5051641;28;19930;-72
2022/12/23 09:35:06;;;;;;;;;;;8.00;99.90;;;;;;5050851;28;19912;-71
2022/12/23 09:37:40;;;;;;;;;;;8.00;99.90;;;;;;5123217;27;19926;-73
2022/12/23 09:40:13;;;;;;;;;;;8.00;99.90;;;;;;5116406;28;20252;-73
2022/12/23 09:43:16;;;;;;;;;;;8.10;99.90;;;;;;5102356;28;19922;-73
2022/12/23 09:45:54;;;;;;;;;;;8.10;99.90;;;;;;5058945;28;19913;-71
2022/12/23 09:48:21;;;;;;;;;;;8.00;99.90;;;;;;5109280;28;19915;-71
2022/12/23 09:50:46;;;;;;;;;;;8.10;99.90;;;;;;5117425;28;19915;-70
2022/12/23 09:53:21;;;;;;;;;;;8.10;99.90;;;;;;5083204;28;19915;-71
2022/12/23 09:55:50;;;;;;;;;;;8.10;99.90;;;;;;5083062;28;19935;-71
2022/12/23 09:58:25;;;;;;;;;;;8.00;99.90;;;;;;5119371;28;19924;-71
2022/12/23 10:01:01;;;;;;;;;;;8.00;99.90;;;;;;5114136;28;20292;-71
2022/12/23 10:03:33;;;;;;;;;;;8.10;99.90;;;;;;5124245;28;20023;-71
2022/12/23 10:06:02;;;;;;;;;;;8.00;99.90;;;;;;5094727;28;19919;-69
2022/12/23 10:08:38;;;;;;;;;;;8.10;99.90;;;;;;5126969;27;19925;-72
2022/12/23 10:11:04;;;;;;;;;;;8.10;99.90;;;;;;5094139;28;19999;-69
2022/12/23 10:13:34;;;;;;;;;;;8.10;99.90;;;;;;5116803;28;20027;-69
2022/12/23 10:16:02;;;;;;;;;;;8.10;99.90;;;;;;5140805;27;19978;-69
2022/12/23 10:18:46;;;;;;;;;;;8.10;99.90;;;;;;5108083;28;19920;-68
2022/12/23 10:21:31;;;;;;;;;;;8.20;99.90;;;;;;5122734;27;19977;-69
2022/12/23 10:23:57;;;;;;;;;;;8.20;99.90;;;;;;5112098;27;19923;-69
2022/12/23 10:26:23;;;;;;;;;;;8.30;99.90;;;;;;5106684;28;19915;-68
2022/12/23 10:28:58;;;;;;;;;;;8.30;99.90;;;;;;5125770;28;19915;-70
2022/12/23 10:31:32;;;;;;;;;;;8.30;99.90;;;;;;5109980;28;19927;-69
2022/12/23 10:33:59;;;;;;;;;;;8.30;99.90;;;;;;5120032;28;19965;-69
2022/12/23 10:36:39;;;;;;;;;;;8.30;99.90;;;;;;5146444;27;19928;-69
2022/12/23 10:39:07;;;;;;;;;;;8.20;99.90;;;;;;5096825;28;19921;-69
2022/12/23 10:41:52;;;;;;;;;;;8.30;99.90;;;;;;5095144;28;19927;-69
2022/12/23 10:44:20;;;;;;;;;;;8.30;99.90;;;;;;5120081;28;19980;-69
2022/12/23 10:46:52;;;;;;;;;;;8.30;99.90;;;;;;5115269;28;19967;-69
2022/12/23 10:49:33;;;;;;;;;;;8.30;99.90;;;;;;5105500;28;19915;-71
2022/12/23 10:51:59;;;;;;;;;;;8.30;99.90;;;;;;5108888;28;19916;-71
2022/12/23 10:54:30;;;;;;;;;;;8.30;99.90;;;;;;5100102;28;19916;-70
2022/12/23 10:57:00;;;;;;;;;;;8.20;99.90;;;;;;5094598;28;19920;-70
2022/12/23 10:59:32;;;;;;;;;;;8.20;99.90;;;;;;5065481;28;19916;-70
2022/12/23 11:02:10;;;;;;;;;;;8.20;99.90;;;;;;5058301;28;19978;-68
2022/12/23 11:04:36;;;;;;;;;;;8.20;99.90;;;;;;5106317;28;19927;-69
2022/12/23 11:07:02;;;;;;;;;;;8.30;99.90;;;;;;5077311;28;20389;-69
2022/12/23 11:09:37;;;;;;;;;;;8.30;99.90;;;;;;5100739;28;19998;-69
2022/12/23 11:12:04;;;;;;;;;;;8.30;99.90;;;;;;5095138;28;19947;-69
2022/12/23 11:14:31;;;;;;;;;;;8.30;99.90;;;;;;5084422;28;19923;-71
2022/12/23 11:16:57;;;;;;;;;;;8.30;99.90;;;;;;5111556;28;20015;-71
2022/12/23 11:19:22;;;;;;;;;;;8.30;99.90;;;;;;5105316;28;19916;-68
2022/12/23 11:21:52;;;;;;;;;;;8.30;99.90;;;;;;5108991;28;19965;-67
2022/12/23 11:24:18;;;;;;;;;;;8.30;99.90;;;;;;5092441;28;20015;-70
2022/12/23 11:26:44;;;;;;;;;;;8.30;99.90;;;;;;5094169;28;19916;-70
2022/12/23 11:29:11;;;;;;;;;;;8.30;99.90;;;;;;5091867;28;19916;-70
2022/12/23 11:31:36;;;;;;;;;;;8.40;99.90;;;;;;5086566;28;19923;-69
2022/12/23 11:34:03;;;;;;;;;;;8.30;99.90;;;;;;5090010;28;19920;-69
2022/12/23 11:36:29;;;;;;;;;;;8.30;99.90;;;;;;5109049;28;20326;-69
2022/12/23 11:39:33;;;;;;;;;;;8.40;99.90;;;;;;5098065;28;19998;-70
2022/12/23 11:42:16;;;;;;;;;;;8.40;99.90;;;;;;5089182;28;19916;-72
2022/12/23 11:44:41;;;;;;;;;;;8.40;99.90;;;;;;5075392;28;19992;-72
2022/12/23 11:47:22;;;;;;;;;;;8.40;99.90;;;;;;5080710;28;20313;-72
2022/12/23 11:49:48;;;;;;;;;;;8.40;99.90;;;;;;5102066;28;19916;-70
2022/12/23 11:52:15;;;;;;;;;;;8.40;99.90;;;;;;5106879;28;19927;-69
2022/12/23 11:54:41;;;;;;;;;;;8.40;99.90;;;;;;5102563;28;19928;-71
2022/12/23 11:57:12;;;;;;;;;;;8.40;99.90;;;;;;5106149;28;20306;-72
2022/12/23 11:59:51;;;;;;;;;;;8.40;99.90;;;;;;5086583;28;19951;-72
2022/12/23 12:02:18;;;;;;;;;;;8.40;99.90;;;;;;5079953;28;19927;-72
2022/12/23 12:04:44;;;;;;;;;;;8.40;99.90;;;;;;5107713;27;19920;-73
2022/12/23 12:07:13;;;;;;;;;;;8.40;99.90;;;;;;5096966;28;19961;-69
2022/12/23 12:09:39;;;;;;;;;;;8.40;99.90;;;;;;5091859;28;19916;-69
2022/12/23 12:12:05;;;;;;;;;;;8.40;99.90;;;;;;5099599;28;19915;-72
2022/12/23 12:14:32;;;;;;;;;;;8.40;99.90;;;;;;5106724;28;19919;-71
2022/12/23 12:16:58;;;;;;;;;;;8.40;99.90;;;;;;5083312;28;20392;-72
2022/12/23 12:19:25;;;;;;;;;;;8.40;99.90;;;;;;5107554;28;20042;-71
2022/12/23 12:21:50;;;;;;;;;;;8.40;99.90;;;;;;5140283;27;20023;-71
2022/12/23 12:24:18;;;;;;;;;;;8.40;99.90;;;;;;5101816;28;19995;-71
2022/12/23 12:26:43;;;;;;;;;;;8.40;99.90;;;;;;5118690;27;19916;-71
2022/12/23 12:29:09;;;;;;;;;;;8.40;99.90;;;;;;5081063;28;19916;-71
2022/12/23 12:31:39;;;;;;;;;;;8.40;99.90;;;;;;5094578;28;19969;-72
2022/12/23 12:34:24;;;;;;;;;;;8.40;99.90;;;;;;5103587;28;20521;-71
2022/12/23 12:36:51;;;;;;;;;;;8.40;99.90;;;;;;5097105;28;19924;-73
2022/12/23 12:39:19;;;;;;;;;;;8.40;99.90;;;;;;5117953;27;19972;-72
2022/12/23 12:41:49;;;;;;;;;;;8.40;99.90;;;;;;5091902;28;19915;-72
2022/12/23 12:44:15;;;;;;;;;;;8.40;99.90;;;;;;5084063;28;20332;-71
2022/12/23 12:46:45;;;;;;;;;;;8.50;99.90;;;;;;5105623;28;19927;-71
2022/12/23 12:49:19;;;;;;;;;;;8.40;99.90;;;;;;5092152;28;20120;-72
2022/12/23 12:51:50;;;;;;;;;;;8.40;99.90;;;;;;5074445;28;19917;-71
2022/12/23 12:54:25;;;;;;;;;;;8.50;99.90;;;;;;5112791;27;19916;-71
2022/12/23 12:56:51;;;;;;;;;;;8.50;99.90;;;;;;5106188;28;19920;-71
2022/12/23 12:59:18;;;;;;;;;;;8.50;99.90;;;;;;5083052;28;20681;-71
2022/12/23 13:01:58;;;;;;;;;;;8.50;99.90;;;;;;5069107;28;19958;-73
2022/12/23 13:04:28;;;;;;;;;;;8.60;99.90;;;;;;5088986;28;19926;-72
2022/12/23 13:07:13;;;;;;;;;;;8.60;99.90;;;;;;5065009;28;19916;-73
2022/12/23 13:09:51;;;;;;;;;;;8.60;99.90;;;;;;5109126;28;19916;-71
2022/12/23 13:12:36;;;;;;;;;;;8.60;99.90;;;;;;5140367;27;19916;-71
2022/12/23 13:15:07;;;;;;;;;;;8.60;99.90;;;;;;5110047;28;20012;-71
2022/12/23 13:17:38;;;;;;;;;;;8.60;99.90;;;;;;5097179;28;19972;-71
2022/12/23 13:20:14;;;;;;;;;;;8.60;99.90;;;;;;5092552;28;19915;-71
2022/12/23 13:22:40;;;;;;;;;;;8.60;99.90;;;;;;5075416;28;20309;-71
2022/12/23 13:25:32;;;;;;;;;;;8.60;99.90;;;;;;5100757;28;19923;-71
2022/12/23 13:28:07;;;;;;;;;;;8.60;99.90;;;;;;5101782;28;19915;-71
2022/12/23 13:30:35;;;;;;;;;;;8.60;99.90;;;;;;5093671;28;19912;-71
2022/12/23 13:33:03;;;;;;;;;;;8.60;99.90;;;;;;5064408;28;19919;-72
2022/12/23 13:35:35;;;;;;;;;;;8.60;99.90;;;;;;5102136;28;19939;-72
2022/12/23 13:38:19;;;;;;;;;;;8.60;99.90;;;;;;5109256;28;19920;-73
2022/12/23 13:40:56;;;;;;;;;;;8.60;99.90;;;;;;5082444;28;20378;-72
2022/12/23 13:43:22;;;;;;;;;;;8.60;99.90;;;;;;5114788;28;19931;-72
2022/12/23 13:45:48;;;;;;;;;;;8.60;99.90;;;;;;5093558;28;19924;-72
2022/12/23 13:48:23;;;;;;;;;;;8.60;99.90;;;;;;5076546;28;19926;-72
2022/12/23 13:50:50;;;;;;;;;;;8.60;99.90;;;;;;5109401;28;19915;-72
2022/12/23 13:53:19;;;;;;;;;;;8.60;99.90;;;;;;5101830;28;19977;-71
2022/12/23 13:56:04;;;;;;;;;;;8.60;99.90;;;;;;5099273;28;19919;-72
2022/12/23 13:58:32;;;;;;;;;;;8.60;99.90;;;;;;5102427;28;19916;-71
2022/12/23 14:00:58;;;;;;;;;;;8.60;99.90;;;;;;5090706;28;19951;-72
2022/12/23 14:03:24;;;;;;;;;;;8.60;99.90;;;;;;5104761;28;19947;-72
2022/12/23 14:05:50;;;;;;;;;;;8.60;99.90;;;;;;5084243;28;19915;-71
2022/12/23 14:08:19;;;;;;;;;;;8.60;99.90;;;;;;5089339;28;19916;-72
2022/12/23 14:10:54;;;;;;;;;;;8.50;99.90;;;;;;5099708;28;20011;-72
2022/12/23 14:13:21;;;;;;;;;;;8.50;99.90;;;;;;5102850;28;19916;-71
2022/12/23 14:15:46;;;;;;;;;;;8.50;99.90;;;;;;5078274;28;19919;-72
2022/12/23 14:18:35;;;;;;;;;;;8.50;99.90;;;;;;5108495;28;19976;-72
2022/12/23 14:21:19;;;;;;;;;;;8.50;99.90;;;;;;5103649;28;19915;-71
2022/12/23 14:23:54;;;;;;;;;;;8.50;99.90;;;;;;5100750;28;19955;-72
2022/12/23 14:26:49;;;;;;;;;;;8.50;99.90;;;;;;5108506;28;19916;-71
2022/12/23 14:29:23;;;;;;;;;;;8.50;99.90;;;;;;5099587;28;20367;-71
2022/12/23 14:31:56;;;;;;;;;;;8.50;99.90;;;;;;5138712;27;19916;-71
2022/12/23 14:34:24;;;;;;;;;;;8.50;99.90;;;;;;5095508;28;20215;-71
2022/12/23 14:37:08;;;;;;;;;;;8.50;99.90;;;;;;5107834;28;20273;-71
2022/12/23 14:39:34;;;;;;;;;;;8.50;99.90;;;;;;5111556;28;19927;-71
2022/12/23 14:41:59;;;;;;;;;;;8.40;99.90;;;;;;5087055;28;19915;-71
2022/12/23 14:44:37;;;;;;;;;;;8.40;99.90;;;;;;5110876;28;19926;-71
2022/12/23 14:47:03;;;;;;;;;;;8.50;99.90;;;;;;5081819;28;20221;-71
2022/12/23 14:49:33;;;;;;;;;;;8.40;99.90;;;;;;5095175;28;19923;-72
2022/12/23 14:52:17;;;;;;;;;;;8.50;99.90;;;;;;5092883;28;20326;-71
2022/12/23 14:54:42;;;;;;;;;;;8.50;99.90;;;;;;5095622;28;19916;-72
2022/12/23 14:57:14;;;;;;;;;;;8.50;99.90;;;;;;5101462;28;20222;-72
2022/12/23 14:59:48;;;;;;;;;;;8.50;99.90;;;;;;5097875;28;19916;-71
2022/12/23 15:02:15;;;;;;;;;;;8.40;99.90;;;;;;5111309;28;19927;-71
2022/12/23 15:04:45;;;;;;;;;;;8.40;99.90;;;;;;5111916;28;19920;-71